Time;durP1;ratioP1;P1;durP2;ratioP2;P2;SDS_P1;SDS_P2;PMS_P1;PMS_P2;Temp;Humidity;BMP_temperature;BMP_pressure;BME280_temperature;BME280_humidity;BME280_pressure;Samples;Min_cycle;Max_cycle;Signal;HPM_P1;HPM_P2
2021/03/11 00:00:20;;;;;;;80.10;33.40;;;;;;;-3.95;64.80;98796.50;124435;1112;23030;-80
2021/03/11 00:03:10;;;;;;;73.57;32.30;;;;;;;-3.97;64.77;98795.80;124620;1112;23135;-80
2021/03/11 00:05:39;;;;;;;73.60;31.30;;;;;;;-4.01;64.42;98789.94;124438;1112;23212;-80
2021/03/11 00:08:06;;;;;;;78.63;33.10;;;;;;;-4.00;64.84;98785.48;124568;1112;23209;-80
2021/03/11 00:10:34;;;;;;;86.93;33.10;;;;;;;-4.04;64.02;98776.95;124454;1112;26486;-80
2021/03/11 00:13:00;;;;;;;83.70;31.15;;;;;;;-4.10;63.80;98769.53;124504;1112;23031;-80
2021/03/11 00:15:28;;;;;;;75.60;29.90;;;;;;;-4.13;64.22;98761.83;124697;1112;23106;-80
2021/03/11 00:17:54;;;;;;;64.53;28.17;;;;;;;-4.16;64.29;98756.82;124455;1112;23076;-80
2021/03/11 00:20:24;;;;;;;73.07;30.70;;;;;;;-4.19;64.49;98757.09;124623;1112;23037;-80
2021/03/11 00:22:52;;;;;;;67.13;30.27;;;;;;;-4.23;64.40;98755.72;124474;1112;23174;-80
2021/03/11 00:25:23;;;;;;;70.53;29.93;;;;;;;-4.25;64.69;98757.66;124439;1112;23126;-80
2021/03/11 00:27:50;;;;;;;67.60;30.73;;;;;;;-4.30;64.83;98766.08;124520;1112;23032;-80
2021/03/11 00:30:19;;;;;;;72.73;29.67;;;;;;;-4.32;64.39;98751.23;124614;1110;24698;-80
2021/03/11 00:32:45;;;;;;;97.90;41.87;;;;;;;-4.40;64.87;98754.62;124575;1112;23238;-80
2021/03/11 00:35:12;;;;;;;90.70;39.43;;;;;;;-4.46;66.17;98750.72;125009;1112;23090;-80
2021/03/11 00:37:40;;;;;;;85.07;36.57;;;;;;;-4.44;66.89;98734.63;124820;1112;23238;-80
2021/03/11 00:40:10;;;;;;;79.53;30.77;;;;;;;-4.42;65.74;98737.98;124938;1112;23086;-80
2021/03/11 00:42:37;;;;;;;65.27;28.07;;;;;;;-4.40;65.28;98742.16;124736;1112;26076;-80
2021/03/11 00:45:06;;;;;;;69.07;28.30;;;;;;;-4.37;64.85;98745.50;124850;1112;26411;-80
2021/03/11 00:47:32;;;;;;;67.35;27.48;;;;;;;-4.36;64.30;98742.70;125048;1112;23074;-80
2021/03/11 00:49:59;;;;;;;68.90;26.30;;;;;;;-4.36;63.50;98737.39;124826;1112;23006;-80
2021/03/11 00:52:26;;;;;;;63.13;27.73;;;;;;;-4.36;63.83;98731.25;124975;1112;23030;-80
2021/03/11 00:54:52;;;;;;;57.40;25.63;;;;;;;-4.31;63.45;98729.00;124885;1112;23032;-80
2021/03/11 00:57:21;;;;;;;52.77;25.30;;;;;;;-4.29;63.64;98729.69;124713;1112;23196;-80
2021/03/11 00:59:48;;;;;;;58.43;25.27;;;;;;;-4.28;63.05;98728.72;124924;1111;23238;-80
2021/03/11 01:02:14;;;;;;;59.40;26.60;;;;;;;-4.26;63.38;98724.92;124764;1115;23042;-80
2021/03/11 01:04:41;;;;;;;62.00;26.35;;;;;;;-4.22;64.55;98725.47;124768;1112;23752;-80
2021/03/11 01:07:08;;;;;;;59.10;25.37;;;;;;;-4.22;63.70;98731.62;124819;1112;23041;-80
2021/03/11 01:09:35;;;;;;;65.80;27.53;;;;;;;-4.21;63.64;98725.33;125025;1111;23083;-80
2021/03/11 01:12:02;;;;;;;58.03;25.60;;;;;;;-4.18;63.37;98726.84;124756;1112;23238;-80
2021/03/11 01:14:29;;;;;;;67.60;28.37;;;;;;;-4.17;64.48;98733.86;124817;1112;23238;-80
2021/03/11 01:16:55;;;;;;;70.30;30.23;;;;;;;-4.22;63.76;98730.79;124787;1112;23076;-80
2021/03/11 01:19:22;;;;;;;60.97;27.77;;;;;;;-4.23;63.75;98724.64;124758;1112;26536;-80
2021/03/11 01:21:48;;;;;;;68.97;28.63;;;;;;;-4.25;63.63;98718.64;124784;1112;23123;-80
2021/03/11 01:24:15;;;;;;;64.43;26.53;;;;;;;-4.27;63.95;98714.42;124744;1112;23087;-80
2021/03/11 01:26:42;;;;;;;61.53;27.97;;;;;;;-4.31;63.91;98715.70;124723;1112;23032;-80
2021/03/11 01:29:08;;;;;;;63.60;27.03;;;;;;;-4.34;64.56;98708.84;124733;1111;23027;-80
2021/03/11 01:31:35;;;;;;;69.35;28.30;;;;;;;-4.31;64.88;98710.39;124820;1112;25825;-80
2021/03/11 01:34:02;;;;;;;63.90;26.03;;;;;;;-4.25;64.59;98712.45;124696;1112;26437;-80
2021/03/11 01:36:28;;;;;;;61.23;25.77;;;;;;;-4.25;63.21;98705.34;124715;1111;23030;-80
2021/03/11 01:38:55;;;;;;;59.07;27.63;;;;;;;-4.22;64.32;98706.86;124747;1112;23711;-80
2021/03/11 01:41:22;;;;;;;72.83;28.70;;;;;;;-4.20;64.65;98696.91;124838;1112;26469;-80
2021/03/11 01:43:49;;;;;;;62.90;27.37;;;;;;;-4.23;64.39;98691.91;124884;1112;23040;-80
2021/03/11 01:46:16;;;;;;;69.73;29.80;;;;;;;-4.29;64.51;98682.66;124873;1114;23096;-80
2021/03/11 01:48:42;;;;;;;74.23;28.10;;;;;;;-4.37;64.51;98673.73;124751;1112;23022;-80
2021/03/11 01:51:09;;;;;;;59.20;27.40;;;;;;;-4.44;64.18;98670.84;124755;1112;23031;-80
2021/03/11 01:53:36;;;;;;;50.20;25.40;;;;;;;-4.47;64.76;98671.12;125016;1111;23036;-80
2021/03/11 01:56:03;;;;;;;62.30;27.85;;;;;;;-4.47;64.38;98684.41;124723;1111;23184;-80
2021/03/11 01:58:29;;;;;;;87.90;39.53;;;;;;;-4.54;66.12;98678.82;124810;1112;23214;-80
2021/03/11 02:00:56;;;;;;;107.13;45.30;;;;;;;-4.66;66.75;98682.62;124767;1112;23039;-80
2021/03/11 02:03:23;;;;;;;105.97;44.37;;;;;;;-4.78;67.78;98681.93;124705;1112;23116;-80
2021/03/11 02:05:49;;;;;;;97.90;40.05;;;;;;;-4.78;67.48;98671.30;124809;1112;23038;-80
2021/03/11 02:08:16;;;;;;;78.27;33.13;;;;;;;-4.76;67.27;98666.71;124803;1112;23106;-80
2021/03/11 02:10:44;;;;;;;79.77;30.30;;;;;;;-4.75;66.29;98668.38;124751;1115;23040;-80
2021/03/11 02:13:32;;;;;;;88.57;33.47;;;;;;;-4.72;66.61;98675.23;124843;1112;23102;-80
2021/03/11 02:16:38;;;;;;;64.05;30.08;;;;;;;-4.70;66.11;98662.64;124707;1112;23122;-80
2021/03/11 02:19:42;;;;;;;59.47;27.63;;;;;;;-4.64;66.00;98656.73;124965;1112;26180;-80
2021/03/11 02:22:12;;;;;;;62.40;27.93;;;;;;;-4.67;65.96;98651.73;124723;1112;23046;-80
2021/03/11 02:24:38;;;;;;;;;;;;;;;-4.73;65.94;98645.15;124765;1112;23098;-80
2021/03/11 02:27:17;;;;;;;66.73;28.83;;;;;;;-4.80;66.07;98642.25;124882;1112;24187;-80
2021/03/11 02:29:44;;;;;;;68.43;30.33;;;;;;;-4.83;65.77;98642.53;124785;1115;23036;-80
2021/03/11 02:32:12;;;;;;;73.10;33.25;;;;;;;-4.85;65.84;98639.18;124743;1112;25343;-80
2021/03/11 02:34:48;;;;;;;78.20;34.10;;;;;;;-4.88;66.18;98634.14;124698;1112;23109;-80
2021/03/11 02:37:22;;;;;;;82.73;34.90;;;;;;;-4.84;65.91;98640.01;124902;1112;23051;-80
2021/03/11 02:40:18;;;;;;;77.70;34.60;;;;;;;-4.86;65.30;98644.63;124693;1112;23747;-80
2021/03/11 02:42:47;;;;;;;75.47;34.83;;;;;;;-4.98;67.70;98635.97;124812;1112;23092;-80
2021/03/11 02:45:23;;;;;;;85.10;37.23;;;;;;;-4.99;68.18;98636.97;124692;1112;23051;-80
2021/03/11 02:47:50;;;;;;;82.47;35.17;;;;;;;-5.01;68.21;98629.14;124957;1111;23144;-80
2021/03/11 02:50:19;;;;;;;75.27;34.93;;;;;;;-5.03;67.95;98623.14;124753;1112;26428;-80
2021/03/11 02:52:48;;;;;;;90.20;36.90;;;;;;;-5.05;68.06;98610.97;124897;1112;23044;-80
2021/03/11 02:55:16;;;;;;;83.17;33.75;;;;;;;-5.05;68.10;98610.97;124942;1112;23102;-80
2021/03/11 02:57:45;;;;;;;80.80;36.67;;;;;;;-5.06;67.47;98601.34;124873;1112;23231;-80
2021/03/11 03:00:13;;;;;;;74.10;35.30;;;;;;;-5.07;67.44;98599.66;125054;1111;24668;-80
2021/03/11 03:02:45;;;;;;;86.73;37.83;;;;;;;-5.04;67.80;98594.89;125044;1110;23023;-80
2021/03/11 03:05:17;;;;;;;91.33;38.23;;;;;;;-5.01;67.94;98594.62;124747;1116;23028;-80
2021/03/11 03:07:46;;;;;;;83.65;39.55;;;;;;;-4.97;67.49;98585.38;124918;1112;26157;-80
2021/03/11 03:10:17;;;;;;;;;;;;;;;-4.99;67.25;98587.34;124798;1112;23227;-80
2021/03/11 03:12:43;;;;;;;;;;;;;;;-4.99;67.70;98578.55;124954;1112;21685;-80
2021/03/11 03:15:12;;;;;;;;;;;;;;;-5.02;67.70;98586.79;124917;1112;24212;-80
2021/03/11 03:17:39;;;;;;;;;;;;;;;-5.01;67.51;98594.62;124812;1112;24190;-80
2021/03/11 03:20:07;;;;;;;;;;;;;;;-5.03;67.58;98593.06;124710;1112;25692;-80
2021/03/11 03:22:34;;;;;;;;;;;;;;;-5.00;67.77;98593.63;124740;1112;24119;-80
2021/03/11 03:25:00;;;;;;;;;;;;;;;-5.03;67.85;98595.73;124831;1112;21532;-80
2021/03/11 03:27:27;;;;;;;;;;;;;;;-5.18;68.00;98592.69;124739;1112;21531;-80
2021/03/11 03:29:53;;;;;;;;;;;;;;;-5.27;69.08;98589.05;124738;1111;21530;-80
2021/03/11 03:32:19;;;;;;;;;;;;;;;-5.32;69.55;98587.81;124973;1112;21540;-80
2021/03/11 03:34:46;;;;;;;;;;;;;;;-5.47;69.06;98595.34;124747;1112;21549;-80
2021/03/11 03:37:12;;;;;;;;;;;;;;;-5.49;70.09;98591.99;124789;1112;24213;-80
2021/03/11 03:39:39;;;;;;;;;;;;;;;-5.46;70.34;98594.38;124848;1112;23149;-80
2021/03/11 03:42:07;;;;;;;;;;;;;;;-5.44;70.58;98579.98;124946;1112;21529;-80
2021/03/11 03:44:35;;;;;;;;;;;;;;;-5.47;70.43;98567.02;124706;1112;21536;-80
2021/03/11 03:47:02;;;;;;;;;;;;;;;-5.44;70.45;98557.92;124869;1112;25531;-81
2021/03/11 03:49:29;;;;;;;;;;;;;;;-5.42;70.28;98559.47;125092;1112;25930;-80
2021/03/11 03:51:58;;;;;;;;;;;;;;;-5.39;70.60;98556.52;124760;1112;21754;-80
2021/03/11 03:54:26;;;;;;;;;;;;;;;-5.34;70.23;98570.20;124939;1112;21539;-80
2021/03/11 03:56:59;;;;;;;;;;;;;;;-5.30;69.98;98580.55;124759;1112;21540;-80
2021/03/11 03:59:26;;;;;;;;;;;;;;;-5.32;70.66;98575.37;124861;1112;21621;-80
2021/03/11 04:01:56;;;;;;;;;;;;;;;-5.31;69.96;98573.55;124899;1112;21539;-80
2021/03/11 04:04:25;;;;;;;;;;;;;;;-5.36;69.74;98579.30;124830;1112;21543;-80
2021/03/11 04:06:52;;;;;;;;;;;;;;;-5.41;69.38;98565.61;124998;1112;21549;-80
2021/03/11 04:09:19;;;;;;;;;;;;;;;-5.42;69.24;98559.47;124985;1112;23280;-80
2021/03/11 04:11:46;;;;;;;;;;;;;;;-5.46;69.37;98557.23;125009;1111;24273;-80
2021/03/11 04:14:13;;;;;;;;;;;;;;;-5.47;70.31;98559.05;124931;1112;21560;-80
2021/03/11 04:16:43;;;;;;;;;;;;;;;-5.46;69.61;98562.53;124971;1112;21524;-80
2021/03/11 04:19:10;;;;;;;;;;;;;;;-5.46;69.72;98558.05;124758;1112;24213;-80
2021/03/11 04:21:37;;;;;;;;;;;;;;;-5.46;69.97;98549.27;124804;1112;21644;-80
2021/03/11 04:24:04;;;;;;;;;;;;;;;-5.47;69.31;98543.13;124826;1112;22777;-80
2021/03/11 04:26:31;;;;;;;;;;;;;;;-5.49;69.79;98537.10;124803;1112;21549;-80
2021/03/11 04:28:58;;;;;;;;;;;;;;;-5.51;69.50;98538.23;124822;1112;22970;-80
2021/03/11 04:31:26;;;;;;;;;;;;;;;-5.51;69.24;98560.29;124916;1112;24213;-80
2021/03/11 04:33:53;;;;;;;;;;;;;;;-5.51;70.03;98554.98;124760;1112;21536;-80
2021/03/11 04:36:20;;;;;;;;;;;;;;;-5.49;70.27;98560.98;125036;1112;23224;-79
2021/03/11 04:38:47;;;;;;;;;;;;;;;-5.54;70.16;98550.81;124804;1112;23112;-79
2021/03/11 04:41:13;;;;;;;;;;;;;;;-5.54;69.65;98552.64;124759;1112;21535;-79
2021/03/11 04:43:41;;;;;;;;;;;;;;;-5.56;70.48;98549.26;124532;1113;21614;-79
2021/03/11 04:46:07;;;;;;;;;;;;;;;-5.49;70.00;98557.50;124783;1112;21539;-79
2021/03/11 04:48:34;;;;;;;;;;;;;;;-5.52;69.84;98550.67;124721;1112;21543;-79
2021/03/11 04:51:04;;;;;;;;;;;;;;;-5.48;70.21;98545.92;124762;1111;21776;-79
2021/03/11 04:53:32;;;;;;;;;;;;;;;-5.44;70.03;98549.95;124714;1111;21540;-79
2021/03/11 04:55:59;;;;;;;;;;;;;;;-5.41;69.75;98541.72;124478;1113;21604;-79
2021/03/11 04:58:28;;;;;;;;;;;;;;;-5.39;70.01;98522.02;124646;1112;21544;-79
2021/03/11 05:00:55;;;;;;;;;;;;;;;-5.40;69.71;98527.45;124482;1112;21777;-79
2021/03/11 05:03:22;;;;;;;;;;;;;;;-5.42;69.57;98535.59;124422;1112;24194;-79
2021/03/11 05:05:48;;;;;;;;;;;;;;;-5.42;70.10;98534.73;124574;1112;24335;-79
2021/03/11 05:08:15;;;;;;;;;;;;;;;-5.44;70.38;98532.21;124657;1112;21696;-79
2021/03/11 05:10:41;;;;;;;;;;;;;;;-5.43;70.36;98530.42;124567;1111;21597;-79
2021/03/11 05:13:08;;;;;;;;;;;;;;;-5.46;69.77;98531.52;124441;1112;21539;-79
2021/03/11 05:15:34;;;;;;;;;;;;;;;-5.47;70.00;98529.00;124419;1112;21678;-79
2021/03/11 05:18:00;;;;;;;;;;;;;;;-5.45;70.15;98530.55;124452;1111;21529;-79
2021/03/11 05:20:27;;;;;;;;;;;;;;;-5.44;70.61;98518.94;124541;1112;21514;-79
2021/03/11 05:22:54;;;;;;;;;;;;;;;-5.42;70.65;98526.77;124411;1112;24198;-79
2021/03/11 05:25:20;;;;;;;;;;;;;;;-5.38;70.96;98522.87;124446;1112;25704;-79
2021/03/11 05:27:47;;;;;;;;;;;;;;;-5.34;71.03;98506.50;124430;1112;21549;-80
2021/03/11 05:30:15;;;;;;;;;;;;;;;-5.28;70.35;98509.57;124480;1112;21544;-79
2021/03/11 05:32:41;;;;;;;;;;;;;;;-5.26;70.99;98499.64;124465;1112;21618;-79
2021/03/11 05:35:08;;;;;;;;;;;;;;;-5.21;70.18;98490.27;124654;1110;21700;-79
2021/03/11 05:37:39;;;;;;;;;;;;;;;-5.15;70.52;98480.91;124515;1111;21965;-80
2021/03/11 05:40:10;;;;;;;;;;;;;;;-5.13;70.34;98486.91;124498;1114;21536;-79
2021/03/11 05:42:43;;;;;;;;;;;;;;;-5.11;70.13;98476.97;124446;1116;21530;-79
2021/03/11 05:45:10;;;;;;;;;;;;;;;-5.08;70.10;98476.69;124626;1112;23153;-79
2021/03/11 05:47:37;;;;;;;;;;;;;;;-5.04;69.94;98471.92;124525;1112;21539;-79
2021/03/11 05:50:07;;;;;;;;;;;;;;;-5.01;69.78;98475.13;124506;1112;21677;-80
2021/03/11 05:52:34;;;;;;;;;;;;;;;-5.00;69.68;98475.95;124526;1115;51601;-80
2021/03/11 05:55:21;;;;;;;;;;;;;;;-4.97;69.88;98478.33;125000;1111;21605;-81
2021/03/11 05:57:48;;;;;;;;;;;;;;;-4.92;69.19;98467.25;124766;1112;21671;-81
2021/03/11 06:00:16;;;;;;;;;;;;;;;-4.83;69.72;98463.73;124796;1112;21803;-81
2021/03/11 06:02:43;;;;;;;;;;;;;;;-4.71;69.69;98464.36;124599;1112;146322;-81
2021/03/11 06:05:16;;;;;;;;;;;;;;;-4.64;69.23;98463.64;124561;1111;21543;-81
2021/03/11 06:07:46;;;;;;;;;;;;;;;-4.51;69.25;98465.11;124612;1113;21542;-81
2021/03/11 06:10:20;;;;;;;;;;;;;;;-4.41;68.91;98472.03;124547;1113;21511;-81
2021/03/11 06:12:48;;;;;;;;;;;;;;;-4.28;68.58;98471.66;124770;1111;21810;-81
2021/03/11 06:15:20;;;;;;;;;;;;;;;-4.21;67.90;98461.27;124579;1113;21620;-81
2021/03/11 06:17:47;;;;;;;;;;;;;;;-4.16;68.11;98455.48;124556;1113;21539;-81
2021/03/11 06:20:14;;;;;;;;;;;;;;;-4.07;67.44;98450.11;124489;1113;21621;-81
2021/03/11 06:22:40;;;;;;;;;;;;;;;-4.03;67.87;98448.80;124504;1113;21546;-81
2021/03/11 06:25:07;;;;;;;;;;;;;;;-3.97;67.17;98447.36;124881;1112;21640;-81
2021/03/11 06:27:34;;;;;;;;;;;;;;;-3.88;67.97;98445.60;124910;1113;21534;-81
2021/03/11 06:30:00;;;;;;;;;;;;;;;-3.80;67.82;98442.20;124708;1113;21539;-81
2021/03/11 06:32:27;;;;;;;;;;;;;;;-3.70;67.57;98441.11;124772;1113;21528;-81
2021/03/11 06:34:54;;;;;;;;;;;;;;;-3.62;67.63;98435.83;124736;1112;23144;-81
2021/03/11 06:37:41;;;;;;;;;;;;;;;-3.52;66.64;98430.42;125004;1113;21539;-81
2021/03/11 06:40:18;;;;;;;;;;;;;;;-3.44;66.06;98433.13;124533;1113;26209;-81
2021/03/11 06:42:46;;;;;;;;;;;;;;;-3.37;66.04;98416.53;124939;1112;22057;-81
2021/03/11 06:45:31;;;;;;;;;;;;;;;-3.31;66.21;98416.75;124983;1111;21684;-81
2021/03/11 06:48:16;;;;;;;;;;;;;;;-3.19;66.05;98409.30;125025;1111;21542;-81
2021/03/11 06:50:43;;;;;;;;;;;;;;;-3.09;64.51;98414.53;124967;1111;21540;-81
2021/03/11 06:53:09;;;;;;;;;;;;;;;-3.03;64.74;98416.54;124969;1111;21752;-81
2021/03/11 06:55:36;;;;;;;;;;;;;;;-2.96;64.98;98406.91;124922;1111;21543;-81
2021/03/11 06:58:21;;;;;;;;;;;;;;;-2.86;64.40;98414.80;124755;1113;24646;-81
2021/03/11 07:00:49;;;;;;;;;;;;;;;-2.77;64.59;98413.00;124885;1113;21549;-81
2021/03/11 07:03:15;;;;;;;;;;;;;;;-2.70;64.50;98406.03;124860;1113;22222;-81
2021/03/11 07:05:43;;;;;;;;;;;;;;;-2.67;64.54;98400.38;124717;1115;21658;-81
2021/03/11 07:08:16;;;;;;;;;;;;;;;-2.58;64.57;98395.91;124792;1115;24203;-81
2021/03/11 07:10:44;;;;;;;;;;;;;;;-2.51;63.47;98392.42;124878;1113;21573;-79
2021/03/11 07:13:10;;;;;;;;;;;;;;;-2.42;63.13;98387.11;124763;1116;21575;-79
2021/03/11 07:15:38;;;;;;;;;;;;;;;-2.32;64.00;98382.44;124711;1115;21687;-79
2021/03/11 07:18:10;;;;;;;;;;;;;;;-2.23;62.87;98384.14;124734;1115;21560;-79
2021/03/11 07:20:36;;;;;;;;;;;;;;;-2.17;63.19;98377.30;124741;1115;21531;-81
2021/03/11 07:23:03;;;;;;;;;;;;;;;-2.08;63.11;98384.31;125201;1112;21546;-79
2021/03/11 07:25:31;;;;;;;;;;;;;;;-2.02;62.65;98372.98;124804;1116;22249;-79
2021/03/11 07:27:57;;;;;;;;;;;;;;;-1.89;61.90;98376.95;124834;1115;21681;-79
2021/03/11 07:30:25;;;;;;;;;;;;;;;-1.80;61.22;98376.80;124769;1113;21621;-80
2021/03/11 07:33:12;;;;;;;;;;;;;;;-1.67;60.95;98362.11;124822;1113;30680;-81
2021/03/11 07:38:06;;;;;;;;;;;;;;;-1.42;60.83;98370.89;124288;1109;819278;-79
2021/03/11 07:40:33;;;;;;;;;;;;;;;-1.29;59.99;98375.70;125107;1114;121132;-79
2021/03/11 07:43:00;;;;;;;;;;;;;;;-1.18;59.87;98361.98;125015;1115;21531;-79
2021/03/11 07:45:27;;;;;;;;;;;;;;;-1.03;59.58;98364.77;124938;1116;21539;-81
2021/03/11 07:47:54;;;;;;;;;;;;;;;-0.89;59.48;98356.02;124966;1116;24250;-79
2021/03/11 07:50:20;;;;;;;;;;;;;;;-0.77;59.00;98345.77;124817;1115;21539;-79
2021/03/11 07:52:47;;;;;;;;;;;;;;;-0.69;58.59;98348.41;124885;1115;21546;-79
2021/03/11 07:55:15;;;;;;;;;;;;;;;-0.59;57.54;98356.20;124922;1115;21549;-80
2021/03/11 07:57:43;;;;;;;;;;;;;;;-0.52;58.10;98353.66;124712;1115;21539;-80
2021/03/11 08:00:11;;;;;;;;;;;;;;;-0.39;57.18;98356.56;124819;1115;21545;-80
2021/03/11 08:02:49;;;;;;;;;;;;;;;-0.27;55.44;98356.99;124779;1115;22000;-80
2021/03/11 08:05:23;;;;;;;;;;;;;;;-0.15;55.65;98357.42;124797;1115;22039;-80
2021/03/11 08:08:09;;;;;;;;;;;;;;;-0.07;54.40;98354.66;124844;1114;21534;-79
2021/03/11 08:10:40;;;;;;;;;;;;;;;0.01;54.47;98353.78;124769;1114;24190;-79
2021/03/11 08:13:26;;;;;;;;;;;;;;;0.04;54.73;98351.58;124923;1113;21539;-80
2021/03/11 08:15:56;;;;;;;;;;;;;;;0.16;53.34;98342.10;124742;1115;21737;-79
2021/03/11 08:18:34;;;;;;;;;;;;;;;0.26;51.92;98335.65;124746;1114;21539;-79
2021/03/11 08:21:05;;;;;;;;;;;;;;;0.37;52.97;98333.38;124771;1114;21536;-79
2021/03/11 08:23:32;;;;;;;;;;;;;;;0.42;51.93;98331.98;124792;1115;21618;-79
2021/03/11 08:26:00;;;;;;;;;;;;;;;0.47;50.91;98330.41;124889;1114;23144;-79
2021/03/11 08:28:26;;;;;;;;;;;;;;;0.54;52.65;98322.48;124733;1115;21530;-79
2021/03/11 08:30:53;;;;;;;;;;;;;;;0.56;52.23;98315.91;124868;1115;21620;-79
2021/03/11 08:33:20;;;;;;;;;;;;;;;0.60;49.86;98305.65;124779;1115;21552;-80
2021/03/11 08:35:49;;;;;;;;;;;;;;;0.64;51.41;98306.11;124790;1115;21549;-80
2021/03/11 08:38:19;;;;;;;;;;;;;;;0.69;51.04;98309.06;124727;1115;23234;-80
2021/03/11 08:40:52;;;;;;;;;;;;;;;0.78;51.43;98307.98;124716;1115;24190;-80
2021/03/11 08:43:37;;;;;;;;;;;;;;;0.90;50.15;98295.77;124570;1116;21536;-79
2021/03/11 08:46:14;;;;;;;;;;;;;;;1.00;49.49;98276.69;124429;1115;21713;-79
2021/03/11 08:48:47;;;;;;;;;;;;;;;1.12;49.39;98279.72;124480;1114;22395;-79
2021/03/11 08:51:26;;;;;;;;;;;;;;;1.25;49.71;98282.54;124514;1116;21530;-79
2021/03/11 08:54:00;;;;;;;;;;;;;;;1.38;50.07;98267.61;124477;1116;21550;-79
2021/03/11 08:56:26;;;;;;;;;;;;;;;1.51;48.01;98262.38;124455;1114;21687;-79
2021/03/11 08:58:53;;;;;;;;;;;;;;;1.63;48.50;98260.85;124460;1115;21539;-79
2021/03/11 09:01:39;;;;;;;;;;;;;;;1.76;48.73;98265.50;124513;1114;21549;-79
2021/03/11 09:04:27;;;;;;;;;;;;;;;1.86;48.27;98263.32;124448;1114;23290;-79
2021/03/11 09:06:55;;;;;;;;;;;;;;;1.98;48.03;98257.41;124475;1115;21543;-79
2021/03/11 09:09:41;;;;;;;;;;;;;;;2.05;47.52;98259.14;124560;1114;21620;-78
2021/03/11 09:12:11;;;;;;;;;;;;;;;2.05;47.34;98248.40;124419;1115;21681;-80
2021/03/11 09:14:39;;;;;;;;;;;;;;;2.11;46.66;98243.23;124448;1116;23114;-78
2021/03/11 09:17:10;;;;;;;;;;;;;;;2.13;46.26;98239.34;124603;1115;21616;-78
2021/03/11 09:19:38;;;;;;;;;;;;;;;2.21;46.76;98227.61;124580;1116;21999;-78
2021/03/11 09:22:23;;;;;;;;;;;;;;;2.31;46.16;98222.72;124433;1115;24522;-78
2021/03/11 09:25:04;;;;;;;;;;;;;;;2.39;46.37;98227.95;124471;1116;21557;-78
2021/03/11 09:27:33;;;;;;;;;;;;;;;2.47;46.48;98217.02;124481;1114;21543;-78
2021/03/11 09:30:05;;;;;;;;;;;;;;;2.57;45.87;98218.53;124444;1114;25685;-78
2021/03/11 09:32:34;;;;;;;;;;;;;;;2.66;46.04;98212.77;124455;1116;24197;-78
2021/03/11 09:35:11;;;;;;;;;;;;;;;2.79;45.52;98211.98;124532;1115;21572;-78
2021/03/11 09:37:57;;;;;;;;;;;;;;;2.88;45.91;98211.82;124517;1116;21550;-78
2021/03/11 09:40:43;;;;;;;;;;;;;;;2.93;44.94;98206.67;124534;1114;21688;-77
2021/03/11 09:43:13;;;;;;;;;;;;;;;2.96;45.27;98200.89;124511;1114;25685;-77
2021/03/11 09:45:43;;;;;;;;;;;;;;;3.01;46.00;98206.47;124568;1116;23054;-77
2021/03/11 09:48:12;;;;;;;;;;;;;;;3.04;45.79;98192.62;124870;1115;21546;-77
2021/03/11 09:50:53;;;;;;;;;;;;;;;3.10;46.22;98191.82;124539;1115;21545;-77
2021/03/11 09:53:23;;;;;;;;;;;;;;;3.16;45.40;98180.23;124589;1116;21598;-77
2021/03/11 09:55:54;;;;;;;;;;;;;;;3.19;45.00;98170.94;124473;1115;21546;-77
2021/03/11 09:58:21;;;;;;;;;;;;;;;3.26;45.93;98168.23;124442;1116;21539;-77
2021/03/11 10:00:48;;;;;;;;;;;;;;;3.29;46.01;98146.30;124596;1116;21534;-77
2021/03/11 10:03:20;;;;;;;;;;;;;;;3.41;46.60;98150.85;124733;1116;21543;-77
2021/03/11 10:05:51;;;;;;;;;;;;;;;3.53;45.02;98143.00;125276;1114;21546;-77
2021/03/11 10:08:28;;;;;;;;;;;;;;;3.66;44.86;98136.77;124540;1115;21598;-77
2021/03/11 10:10:59;;;;;;;;;;;;;;;3.74;44.23;98128.48;124699;1115;21543;-77
2021/03/11 10:13:46;;;;;;;;;;;;;;;3.82;45.72;98123.91;124462;1115;21530;-78
2021/03/11 10:16:37;;;;;;;;;;;;;;;3.92;45.13;98111.67;124993;1115;21543;-78
2021/03/11 10:19:05;;;;;;;;;;;;;;;4.02;44.31;98102.31;124480;1115;21624;-78
2021/03/11 10:21:33;;;;;;;;;;;;;;;4.09;45.19;98103.11;124666;1115;24318;-78
2021/03/11 10:23:59;;;;;;;;;;;;;;;4.17;44.36;98094.81;124771;1116;24653;-78
2021/03/11 10:26:31;;;;;;;;;;;;;;;4.21;44.28;98084.43;124709;1115;21539;-78
2021/03/11 10:29:05;;;;;;;;;;;;;;;4.26;44.71;98074.66;124685;1115;21652;-78
2021/03/11 10:31:32;;;;;;;;;;;;;;;4.33;44.28;98071.94;124759;1114;21547;-78
2021/03/11 10:33:59;;;;;;;;;;;;;;;4.34;44.32;98063.64;124507;1115;21508;-78
2021/03/11 10:36:26;;;;;;;;;;;;;;;4.38;43.27;98054.08;124509;1116;21569;-78
2021/03/11 10:39:20;;;;;;;;;;;;;;;4.44;41.89;98046.17;124532;1116;21547;-78
2021/03/11 10:42:05;;;;;;;;;;;;;;;4.50;41.60;98046.14;124558;1114;21546;-78
2021/03/11 10:44:35;;;;;;;;;;;;;;;4.59;40.79;98048.59;124526;1115;21617;-78
2021/03/11 10:47:22;;;;;;;;;;;;;;;4.60;39.46;98034.87;124568;1115;21617;-78
2021/03/11 10:49:49;;;;;;;;;;;;;;;4.68;38.62;98033.80;124436;1115;21542;-78
2021/03/11 10:52:18;;;;;;;;;;;;;;;4.75;40.17;98032.70;124458;1115;21527;-78
2021/03/11 10:54:45;;;;;;;;;;;;;;;4.81;37.83;98024.78;124442;1114;21544;-77
2021/03/11 10:57:14;;;;;;;;;;;;;;;4.84;37.58;98014.38;124420;1116;21681;-77
2021/03/11 10:59:47;;;;;;;;;;;;;;;4.87;36.82;97997.77;124527;1113;21714;-77
2021/03/11 11:02:14;;;;;;;;;;;;;;;4.94;38.05;98003.11;124439;1116;21617;-77
2021/03/11 11:04:41;;;;;;;;;;;;;;;5.00;38.16;98007.62;124411;1115;25746;-78
2021/03/11 11:07:07;;;;;;;;;;;;;;;5.02;37.60;97992.03;124478;1113;21542;-78
2021/03/11 11:09:35;;;;;;;;;;;;;;;5.07;36.99;97991.38;124513;1115;21527;-77
2021/03/11 11:12:04;;;;;;;;;;;;;;;5.10;36.87;97982.84;124459;1116;23144;-79
2021/03/11 11:14:31;;;;;;;;;;;;;;;5.09;35.12;97973.91;124553;1115;24197;-79
2021/03/11 11:16:57;;;;;;;;;;;;;;;5.12;35.60;97978.05;124550;1114;21621;-79
2021/03/11 11:19:24;;;;;;;;;;;;;;;5.12;36.25;97968.06;124448;1113;21553;-79
2021/03/11 11:21:51;;;;;;;;;;;;;;;5.14;35.74;97962.45;124520;1116;24190;-78
2021/03/11 11:24:18;;;;;;;;;;;;;;;5.13;35.14;97947.30;124377;1115;24190;-79
2021/03/11 11:26:44;;;;;;;;;;;;;;;5.12;35.72;97942.96;124398;1115;24649;-79
2021/03/11 11:29:11;;;;;;;;;;;;;;;5.14;36.26;97938.16;124723;1114;21547;-79
2021/03/11 11:31:37;;;;;;;;;;;;;;;5.21;36.28;97938.10;124542;1114;21543;-79
2021/03/11 11:34:05;;;;;;;;;;;;;;;5.26;36.32;97940.96;124531;1115;21542;-79
2021/03/11 11:36:31;;;;;;;;;;;;;;;5.30;36.31;97932.17;124497;1114;21536;-79
2021/03/11 11:38:58;;;;;;;;;;;;;;;5.33;35.72;97929.03;124464;1116;21617;-79
2021/03/11 11:41:24;;;;;;;;;;;;;;;5.37;37.04;97925.89;124500;1116;21611;-79
2021/03/11 11:43:51;;;;;;;;;;;;;;;5.38;37.27;97922.94;124544;1115;23265;-79
2021/03/11 11:46:17;;;;;;;;;;;;;;;5.44;37.10;97919.36;124470;1114;25774;-79
2021/03/11 11:48:44;;;;;;;;;;;;;;;5.44;37.12;97913.95;124415;1116;21710;-79
2021/03/11 11:51:10;;;;;;;;;;;;;;;5.43;36.05;97906.08;124455;1114;21542;-79
2021/03/11 11:53:37;;;;;;;;;;;;;;;5.44;36.44;97900.45;124521;1115;21537;-79
2021/03/11 11:56:04;;;;;;;;;;;;;;;5.44;36.72;97900.45;124484;1114;25681;-79
2021/03/11 11:58:31;;;;;;;;;;;;;;;5.46;37.13;97895.64;124471;1116;21540;-79
2021/03/11 12:00:58;;;;;;;;;;;;;;;5.48;37.38;97892.72;124463;1116;21542;-79
2021/03/11 12:03:25;;;;;;;;;;;;;;;5.49;36.38;97891.69;124945;1115;24187;-79
2021/03/11 12:05:51;;;;;;;;;;;;;;;5.50;36.76;97879.81;124841;1115;21518;-79
2021/03/11 12:08:18;;;;;;;;;;;;;;;5.51;36.82;97879.59;124961;1115;21658;-79
2021/03/11 12:10:47;;;;;;;;;;;;;;;5.51;36.51;97870.67;124633;1115;21536;-79
2021/03/11 12:13:14;;;;;;;;;;;;;;;5.48;37.39;97865.72;124800;1114;21958;-79
2021/03/11 12:15:41;;;;;;;;;;;;;;;5.43;36.35;97854.77;124561;1114;21614;-79
2021/03/11 12:18:07;;;;;;;;;;;;;;;5.36;36.11;97849.44;124520;1114;21546;-79
2021/03/11 12:20:34;;;;;;;;;;;;;;;5.30;36.20;97845.78;124573;1114;21527;-79
2021/03/11 12:23:02;;;;;;;;;;;;;;;5.25;38.22;97839.41;124985;1116;24197;-79
2021/03/11 12:25:29;;;;;;;;;;;;;;;5.21;37.99;97839.05;124924;1114;21554;-79
2021/03/11 12:27:56;;;;;;;;;;;;;;;5.16;37.64;97838.08;124982;1116;24521;-79
2021/03/11 12:30:22;;;;;;;;;;;;;;;5.10;36.68;97837.11;124562;1115;21681;-79